Time;durP1;ratioP1;P1;durP2;ratioP2;P2;SDS_P1;SDS_P2;PMS_P1;PMS_P2;Temp;Humidity;BMP_temperature;BMP_pressure;BME280_temperature;BME280_humidity;BME280_pressure;Samples;Min_cycle;Max_cycle;Signal;HPM_P1;HPM_P2
2023/10/10 00:00:47;;;;;;;29.73;15.88;;;;;;;;;;6278363;22;20026;-40
2023/10/10 00:03:20;;;;;;;27.33;16.02;;;;;;;;;;6273280;22;20023;-41
2023/10/10 00:05:48;;;;;;;29.02;16.10;;;;;;;;;;6276215;22;20035;-43
2023/10/10 00:08:20;;;;;;;29.13;16.13;;;;;;;;;;6266344;22;20479;-42
2023/10/10 00:10:50;;;;;;;27.88;15.88;;;;;;;;;;6274146;22;20065;-40
2023/10/10 00:13:19;;;;;;;30.15;15.75;;;;;;;;;;6263423;22;20022;-40
2023/10/10 00:15:51;;;;;;;31.40;17.30;;;;;;;;;;6273415;22;20015;-41
2023/10/10 00:18:20;;;;;;;28.55;15.75;;;;;;;;;;6256319;22;20536;-41
2023/10/10 00:21:06;;;;;;;27.90;14.93;;;;;;;;;;6279755;22;20015;-41
2023/10/10 00:23:39;;;;;;;25.88;15.85;;;;;;;;;;6275369;22;20084;-40
2023/10/10 00:26:11;;;;;;;30.15;15.65;;;;;;;;;;6267296;22;20047;-42
2023/10/10 00:28:45;;;;;;;29.25;15.93;;;;;;;;;;6285692;22;20493;-40
2023/10/10 00:31:18;;;;;;;29.38;15.23;;;;;;;;;;6269367;22;20019;-41
2023/10/10 00:33:50;;;;;;;26.87;15.30;;;;;;;;;;6271879;22;20384;-42
2023/10/10 00:36:22;;;;;;;26.77;14.38;;;;;;;;;;6278289;22;20401;-40
2023/10/10 00:38:50;;;;;;;29.35;14.05;;;;;;;;;;6263338;22;20023;-41
2023/10/10 00:41:18;;;;;;;27.42;15.07;;;;;;;;;;6273534;22;20023;-41
2023/10/10 00:43:46;;;;;;;27.92;15.30;;;;;;;;;;6257937;22;20379;-40
2023/10/10 00:46:14;;;;;;;30.80;15.67;;;;;;;;;;6277217;22;20015;-40
2023/10/10 00:48:44;;;;;;;28.15;15.23;;;;;;;;;;6270563;22;20015;-41
2023/10/10 00:51:20;;;;;;;27.33;15.05;;;;;;;;;;6267474;22;20046;-41
2023/10/10 00:54:08;;;;;;;31.70;15.35;;;;;;;;;;6269043;22;20023;-41
2023/10/10 00:56:36;;;;;;;28.63;15.45;;;;;;;;;;6268719;22;20025;-44
2023/10/10 00:59:06;;;;;;;27.47;15.27;;;;;;;;;;6273742;22;20011;-41
2023/10/10 01:01:34;;;;;;;26.73;15.93;;;;;;;;;;6276300;22;20469;-41
2023/10/10 01:04:07;;;;;;;28.58;15.77;;;;;;;;;;6275047;22;20019;-41
2023/10/10 01:06:39;;;;;;;29.95;15.40;;;;;;;;;;6274269;22;20023;-41
2023/10/10 01:09:20;;;;;;;27.40;15.68;;;;;;;;;;6263231;22;20019;-40
2023/10/10 01:11:49;;;;;;;29.03;15.53;;;;;;;;;;6272681;22;20022;-41
2023/10/10 01:14:18;;;;;;;28.70;15.98;;;;;;;;;;6269674;22;20023;-41
2023/10/10 01:16:47;;;;;;;29.27;15.25;;;;;;;;;;6269646;22;20016;-41
2023/10/10 01:19:18;;;;;;;29.13;15.73;;;;;;;;;;6255230;22;20260;-41
2023/10/10 01:21:51;;;;;;;27.73;16.75;;;;;;;;;;6277287;22;20046;-40
2023/10/10 01:24:21;;;;;;;28.10;15.17;;;;;;;;;;6274129;22;20019;-40
2023/10/10 01:26:51;;;;;;;33.20;17.00;;;;;;;;;;6262308;22;20015;-40
2023/10/10 01:29:25;;;;;;;29.35;17.17;;;;;;;;;;6239571;22;20022;-40
2023/10/10 01:31:54;;;;;;;28.65;17.42;;;;;;;;;;6272232;22;20045;-41
2023/10/10 01:34:43;;;;;;;29.80;16.63;;;;;;;;;;6268874;22;20126;-42
2023/10/10 01:37:20;;;;;;;31.37;17.53;;;;;;;;;;6271732;22;20438;-41
2023/10/10 01:40:00;;;;;;;32.60;17.55;;;;;;;;;;6247608;22;20015;-40
2023/10/10 01:42:36;;;;;;;31.58;17.17;;;;;;;;;;6278992;22;20039;-40
2023/10/10 01:45:07;;;;;;;30.85;16.42;;;;;;;;;;6275784;22;20343;-41
2023/10/10 01:47:39;;;;;;;28.80;17.48;;;;;;;;;;6285983;22;20098;-40
2023/10/10 01:50:10;;;;;;;28.20;14.97;;;;;;;;;;6240594;22;20024;-40
2023/10/10 01:52:45;;;;;;;28.85;16.58;;;;;;;;;;6276010;22;20485;-41
2023/10/10 01:55:16;;;;;;;26.02;14.80;;;;;;;;;;6259070;22;20352;-40
2023/10/10 01:57:44;;;;;;;28.10;15.75;;;;;;;;;;6285732;22;20019;-40
2023/10/10 02:00:20;;;;;;;28.77;15.68;;;;;;;;;;6248223;22;20015;-40
2023/10/10 02:02:49;;;;;;;30.77;16.20;;;;;;;;;;6270895;22;20026;-40
2023/10/10 02:05:30;;;;;;;27.52;15.23;;;;;;;;;;6275812;22;20296;-40
2023/10/10 02:08:00;;;;;;;25.65;15.73;;;;;;;;;;6283036;22;20023;-40
2023/10/10 02:10:30;;;;;;;26.35;14.38;;;;;;;;;;6276208;22;20446;-41
2023/10/10 02:13:00;;;;;;;32.35;14.85;;;;;;;;;;6275190;22;20098;-40
2023/10/10 02:15:32;;;;;;;26.47;15.40;;;;;;;;;;6265759;22;20277;-40
2023/10/10 02:18:04;;;;;;;24.67;14.65;;;;;;;;;;6272985;22;20465;-40
2023/10/10 02:44:46;;;;;;;27.02;15.05;;;;;;;;;;6156094;22;1921643;-41
2023/10/10 02:47:14;;;;;;;29.70;14.40;;;;;;;;;;6202708;23;20479;-41
2023/10/10 02:49:42;;;;;;;29.17;14.90;;;;;;;;;;6183782;23;20171;-41
2023/10/10 02:52:14;;;;;;;29.35;16.13;;;;;;;;;;6195759;23;20016;-40
2023/10/10 02:54:53;;;;;;;30.48;15.10;;;;;;;;;;6194117;23;20091;-41
2023/10/10 02:57:33;;;;;;;27.13;15.50;;;;;;;;;;6177212;23;20017;-41
2023/10/10 03:00:27;;;;;;;28.67;16.48;;;;;;;;;;6186799;23;20013;-40
2023/10/10 03:02:56;;;;;;;28.17;15.30;;;;;;;;;;6197893;23;20021;-42
2023/10/10 03:05:43;;;;;;;26.42;14.75;;;;;;;;;;6189133;23;20017;-40
2023/10/10 03:08:16;;;;;;;23.20;13.95;;;;;;;;;;6179400;23;20309;-41
2023/10/10 03:10:45;;;;;;;30.38;15.55;;;;;;;;;;6196131;23;20017;-40
2023/10/10 03:13:35;;;;;;;27.77;15.80;;;;;;;;;;6187060;23;20518;-41
2023/10/10 03:16:29;;;;;;;38.47;16.03;;;;;;;;;;6186769;23;20515;-41
2023/10/10 05:25:50;;;;;;;30.55;15.45;;;;;;;;;;6205607;23;20091;-40
2023/10/10 05:28:19;;;;;;;33.88;16.27;;;;;;;;;;6212591;23;20016;-40
2023/10/10 05:30:47;;;;;;;27.37;15.23;;;;;;;;;;6210263;23;20454;-40
2023/10/10 05:33:19;;;;;;;30.17;15.27;;;;;;;;;;6204199;23;20018;-40
2023/10/10 05:35:48;;;;;;;32.28;14.30;;;;;;;;;;6202281;23;20440;-40
2023/10/10 05:38:16;;;;;;;27.02;14.63;;;;;;;;;;6212962;23;20526;-40
2023/10/10 05:40:46;;;;;;;25.83;13.77;;;;;;;;;;6210410;23;20020;-41
2023/10/10 05:43:16;;;;;;;29.20;14.57;;;;;;;;;;6211326;23;20020;-41
2023/10/10 05:45:44;;;;;;;23.08;12.95;;;;;;;;;;6213605;23;20301;-40
2023/10/10 05:48:12;;;;;;;23.73;12.88;;;;;;;;;;6212724;23;20087;-41
2023/10/10 05:50:40;;;;;;;26.13;13.82;;;;;;;;;;6197871;23;20023;-40
2023/10/10 05:53:10;;;;;;;31.30;13.93;;;;;;;;;;6198502;23;20058;-41
2023/10/10 05:55:38;;;;;;;27.00;13.60;;;;;;;;;;6213583;23;20012;-41
2023/10/10 05:58:08;;;;;;;22.98;13.65;;;;;;;;;;6184921;23;20024;-41
2023/10/10 06:00:37;;;;;;;25.08;14.18;;;;;;;;;;6214488;23;20087;-41
2023/10/10 06:03:06;;;;;;;24.48;12.63;;;;;;;;;;6195482;23;20447;-41
2023/10/10 06:05:34;;;;;;;25.73;12.60;;;;;;;;;;6216356;23;20517;-41
2023/10/10 06:08:05;;;;;;;25.23;13.10;;;;;;;;;;6169323;23;20012;-41
2023/10/10 06:10:34;;;;;;;23.92;13.23;;;;;;;;;;6202742;23;20074;-41
2023/10/10 06:13:03;;;;;;;24.23;13.30;;;;;;;;;;6205067;23;20020;-41
2023/10/10 06:15:33;;;;;;;26.88;12.93;;;;;;;;;;6203765;23;20023;-41
2023/10/10 06:18:11;;;;;;;23.65;13.27;;;;;;;;;;6201991;23;20023;-41
2023/10/10 06:20:44;;;;;;;27.37;13.30;;;;;;;;;;6211094;23;20020;-40
2023/10/10 06:23:33;;;;;;;26.10;12.05;;;;;;;;;;6217752;23;20008;-40
2023/10/10 06:26:02;;;;;;;24.08;12.52;;;;;;;;;;6205990;23;20027;-40
2023/10/10 06:28:35;;;;;;;25.50;13.15;;;;;;;;;;6214974;23;20020;-40
2023/10/10 06:31:10;;;;;;;21.92;11.90;;;;;;;;;;6206649;23;20020;-40
2023/10/10 06:33:41;;;;;;;24.47;13.27;;;;;;;;;;6204920;23;20297;-41
2023/10/10 06:36:32;;;;;;;26.88;13.27;;;;;;;;;;6216309;23;20474;-40
2023/10/10 06:39:18;;;;;;;29.77;12.43;;;;;;;;;;6211315;23;20107;-41
2023/10/10 06:41:54;;;;;;;25.08;12.63;;;;;;;;;;6212550;23;20074;-40
2023/10/10 06:44:35;;;;;;;24.35;12.75;;;;;;;;;;6211770;23;20099;-41
2023/10/10 06:47:10;;;;;;;25.23;12.87;;;;;;;;;;6207364;23;20016;-41
2023/10/10 06:49:54;;;;;;;25.58;13.30;;;;;;;;;;6212996;23;20552;-41
2023/10/10 06:52:27;;;;;;;27.92;13.65;;;;;;;;;;6183725;23;20024;-41
2023/10/10 06:54:56;;;;;;;24.10;13.45;;;;;;;;;;6204506;23;20023;-41
2023/10/10 06:57:35;;;;;;;28.13;14.57;;;;;;;;;;6210399;23;20446;-40
2023/10/10 07:00:17;;;;;;;25.10;13.67;;;;;;;;;;6203993;23;20202;-40
2023/10/10 07:02:49;;;;;;;28.55;14.90;;;;;;;;;;6205654;23;20031;-41
2023/10/10 07:05:19;;;;;;;30.42;15.52;;;;;;;;;;6174315;23;20386;-41
2023/10/10 07:07:52;;;;;;;26.55;13.98;;;;;;;;;;6205967;23;20062;-41
2023/10/10 07:10:26;;;;;;;32.70;15.00;;;;;;;;;;6178730;23;20039;-41
2023/10/10 07:12:57;;;;;;;26.43;14.67;;;;;;;;;;6203313;23;20096;-41
2023/10/10 07:15:25;;;;;;;24.45;14.40;;;;;;;;;;6198528;23;20693;-40
2023/10/10 07:18:08;;;;;;;29.50;14.82;;;;;;;;;;6198811;23;20290;-41
2023/10/10 07:23:24;;;;;;;30.77;16.10;;;;;;;;;;6202774;23;20252;-41
2023/10/10 07:25:59;;;;;;;29.00;15.27;;;;;;;;;;6199588;23;20066;-41
2023/10/10 07:28:28;;;;;;;28.15;15.02;;;;;;;;;;6191052;23;20016;-41
2023/10/10 07:30:55;;;;;;;28.55;14.95;;;;;;;;;;6167494;23;20391;-41
2023/10/10 07:33:26;;;;;;;29.10;15.80;;;;;;;;;;6209658;23;20024;-41
2023/10/10 07:35:56;;;;;;;31.70;15.40;;;;;;;;;;6202871;23;20087;-41
2023/10/10 07:38:27;;;;;;;34.30;16.67;;;;;;;;;;6209178;23;20022;-42
2023/10/10 07:40:54;;;;;;;33.90;18.00;;;;;;;;;;6195482;23;20050;-41
2023/10/10 07:43:26;;;;;;;39.50;19.92;;;;;;;;;;6201342;23;20024;-40
2023/10/10 07:45:55;;;;;;;31.65;17.85;;;;;;;;;;6202281;23;20016;-40
2023/10/10 07:48:39;;;;;;;32.90;16.80;;;;;;;;;;6197855;23;20580;-41
2023/10/10 07:51:08;;;;;;;36.70;17.07;;;;;;;;;;6196558;23;20027;-40
2023/10/10 07:53:44;;;;;;;36.88;16.05;;;;;;;;;;6185406;23;20016;-41
2023/10/10 07:56:12;;;;;;;35.40;16.70;;;;;;;;;;6172683;23;20047;-41
2023/10/10 07:58:49;;;;;;;29.45;16.38;;;;;;;;;;6200887;23;20867;-41
2023/10/10 08:01:20;;;;;;;32.53;17.40;;;;;;;;;;6206805;23;20439;-40
2023/10/10 08:03:49;;;;;;;33.00;17.30;;;;;;;;;;6174949;23;20086;-41
2023/10/10 08:06:21;;;;;;;33.20;16.83;;;;;;;;;;6181600;23;20087;-42
2023/10/10 08:09:09;;;;;;;33.88;18.35;;;;;;;;;;6184323;23;20016;-41
2023/10/10 08:11:37;;;;;;;33.97;18.02;;;;;;;;;;6181121;23;20020;-41
2023/10/10 08:14:08;;;;;;;33.60;17.30;;;;;;;;;;6185767;23;20030;-40
2023/10/10 08:16:38;;;;;;;32.87;17.43;;;;;;;;;;6176507;23;20020;-41
2023/10/10 08:19:08;;;;;;;32.28;17.35;;;;;;;;;;6191954;23;20507;-41
2023/10/10 08:21:38;;;;;;;32.45;18.60;;;;;;;;;;6153689;23;20034;-40
2023/10/10 08:24:08;;;;;;;39.88;18.75;;;;;;;;;;6183582;23;20430;-42
2023/10/10 08:26:42;;;;;;;33.15;18.38;;;;;;;;;;6188184;23;20073;-41
2023/10/10 08:29:18;;;;;;;34.33;18.70;;;;;;;;;;6182970;23;20030;-41
2023/10/10 08:31:46;;;;;;;34.75;17.80;;;;;;;;;;6197114;23;20051;-41
2023/10/10 08:34:19;;;;;;;31.77;17.42;;;;;;;;;;6179296;23;20462;-41
2023/10/10 08:36:51;;;;;;;34.15;18.33;;;;;;;;;;6208801;23;20027;-41
2023/10/10 08:39:25;;;;;;;38.55;19.23;;;;;;;;;;6200362;23;20028;-41
2023/10/10 08:41:54;;;;;;;36.00;19.57;;;;;;;;;;6215240;23;20333;-41
2023/10/10 08:44:23;;;;;;;34.40;18.55;;;;;;;;;;6203874;23;20545;-40
2023/10/10 08:46:52;;;;;;;32.95;19.35;;;;;;;;;;6214742;23;20351;-40
2023/10/10 08:49:20;;;;;;;32.55;18.55;;;;;;;;;;6211824;23;20346;-40
2023/10/10 08:51:48;;;;;;;35.75;18.73;;;;;;;;;;6213399;23;20032;-41
2023/10/10 08:54:17;;;;;;;37.77;17.63;;;;;;;;;;6210765;23;20119;-40
2023/10/10 08:56:59;;;;;;;34.85;18.83;;;;;;;;;;6204299;23;20016;-40
2023/10/10 08:59:29;;;;;;;33.83;19.38;;;;;;;;;;6203799;23;20040;-41
2023/10/10 09:02:20;;;;;;;36.58;19.05;;;;;;;;;;6210052;23;20026;-40
2023/10/10 09:04:50;;;;;;;35.78;18.58;;;;;;;;;;6203369;23;20020;-40
2023/10/10 09:07:21;;;;;;;35.87;18.53;;;;;;;;;;6211877;23;20047;-40
2023/10/10 09:10:04;;;;;;;34.38;18.95;;;;;;;;;;6203897;23;20447;-41
2023/10/10 09:12:33;;;;;;;38.67;18.92;;;;;;;;;;6207601;23;20050;-40
2023/10/10 09:15:11;;;;;;;34.22;18.75;;;;;;;;;;6218266;23;20443;-40
2023/10/10 09:17:40;;;;;;;34.00;17.85;;;;;;;;;;6179227;23;20477;-41
2023/10/10 09:20:17;;;;;;;32.00;15.53;;;;;;;;;;6217040;23;20050;-40
2023/10/10 09:22:51;;;;;;;32.65;15.88;;;;;;;;;;6206604;23;20122;-40
2023/10/10 09:25:25;;;;;;;31.17;15.52;;;;;;;;;;6202636;23;20016;-41
2023/10/10 09:27:57;;;;;;;28.63;14.20;;;;;;;;;;6213467;23;20435;-41
2023/10/10 09:30:30;;;;;;;27.73;14.68;;;;;;;;;;6207474;23;20130;-40
2023/10/10 09:33:12;;;;;;;30.20;14.57;;;;;;;;;;6197599;23;20066;-41
2023/10/10 09:35:45;;;;;;;28.90;14.23;;;;;;;;;;6219805;23;20024;-41
2023/10/10 09:38:19;;;;;;;28.13;14.50;;;;;;;;;;6213095;23;20435;-40
2023/10/10 09:40:58;;;;;;;29.25;13.70;;;;;;;;;;6206908;23;20104;-40
2023/10/10 09:43:35;;;;;;;29.33;14.57;;;;;;;;;;6216914;23;20024;-41
2023/10/10 09:46:10;;;;;;;24.37;13.03;;;;;;;;;;6203598;23;20087;-40
2023/10/10 09:54:17;;;;;;;26.25;12.50;;;;;;;;;;6213508;23;20016;-41
2023/10/10 09:56:48;;;;;;;30.25;13.90;;;;;;;;;;6201680;23;20522;-40
2023/10/10 09:59:19;;;;;;;37.53;15.93;;;;;;;;;;6216432;23;20549;-41
2023/10/10 10:01:48;;;;;;;34.80;14.95;;;;;;;;;;6204130;23;20018;-41
2023/10/10 10:04:19;;;;;;;32.55;14.27;;;;;;;;;;6218927;23;20472;-41
2023/10/10 10:06:55;;;;;;;35.80;15.50;;;;;;;;;;6205369;23;20016;-41
2023/10/10 10:09:46;;;;;;;33.15;16.35;;;;;;;;;;6207938;23;20062;-41
2023/10/10 10:12:33;;;;;;;37.90;15.93;;;;;;;;;;6220195;23;20016;-41
2023/10/10 10:15:15;;;;;;;35.88;16.73;;;;;;;;;;6201462;23;20117;-41
2023/10/10 10:17:53;;;;;;;40.78;17.02;;;;;;;;;;6201192;23;20087;-40
2023/10/10 10:20:32;;;;;;;42.53;17.63;;;;;;;;;;6216555;23;20054;-41
2023/10/10 10:23:00;;;;;;;41.10;19.02;;;;;;;;;;6207813;23;20016;-40
2023/10/10 10:25:32;;;;;;;44.63;18.80;;;;;;;;;;6217545;23;20103;-41
2023/10/10 10:28:10;;;;;;;46.28;18.20;;;;;;;;;;6196384;23;20389;-41
2023/10/10 10:30:53;;;;;;;42.30;17.60;;;;;;;;;;6208898;23;20591;-41
2023/10/10 10:33:24;;;;;;;41.42;18.00;;;;;;;;;;6215498;23;20024;-41
2023/10/10 10:36:14;;;;;;;35.60;15.93;;;;;;;;;;6204325;23;20047;-42
2023/10/10 10:39:19;;;;;;;41.33;18.87;;;;;;;;;;6212329;23;20016;-41
2023/10/10 10:41:47;;;;;;;45.22;18.02;;;;;;;;;;6210905;23;20016;-42
2023/10/10 10:44:28;;;;;;;43.15;18.35;;;;;;;;;;6206749;23;20024;-41
2023/10/10 10:46:58;;;;;;;47.55;17.63;;;;;;;;;;6168011;23;20070;-42
2023/10/10 10:49:28;;;;;;;40.88;18.13;;;;;;;;;;6209671;23;20027;-41
2023/10/10 10:54:41;;;;;;;37.10;16.38;;;;;;;;;;6211283;23;20020;-41
2023/10/10 10:57:07;;;;;;;44.92;18.58;;;;;;;;;;6204388;23;20023;-41
2023/10/10 10:59:39;;;;;;;38.55;17.52;;;;;;;;;;6205686;23;20074;-41
2023/10/10 11:02:15;;;;;;;43.50;17.92;;;;;;;;;;6210209;23;20023;-42
2023/10/10 11:04:49;;;;;;;41.27;17.50;;;;;;;;;;6197504;23;20048;-43
2023/10/10 11:07:29;;;;;;;44.53;18.67;;;;;;;;;;6219019;23;20024;-39
2023/10/10 11:10:07;;;;;;;43.78;18.27;;;;;;;;;;6135909;23;20837;-41
2023/10/10 11:12:37;;;;;;;40.47;19.17;;;;;;;;;;6146092;23;20024;-45
2023/10/10 11:15:08;;;;;;;41.00;18.20;;;;;;;;;;6187906;23;20015;-40
2023/10/10 11:17:39;;;;;;;43.33;18.90;;;;;;;;;;6182966;23;20016;-40
2023/10/10 11:20:29;;;;;;;42.20;18.35;;;;;;;;;;6177461;23;20046;-41
2023/10/10 11:23:11;;;;;;;41.63;18.52;;;;;;;;;;6185289;23;20390;-44
2023/10/10 11:25:58;;;;;;;35.42;16.15;;;;;;;;;;6190652;23;20092;-42
2023/10/10 11:28:36;;;;;;;38.53;18.17;;;;;;;;;;6198631;23;20016;-40
2023/10/10 11:31:07;;;;;;;35.83;16.07;;;;;;;;;;6158298;23;20055;-40
2023/10/10 11:36:22;;;;;;;35.92;16.88;;;;;;;;;;6192797;23;20035;-42
2023/10/10 11:38:56;;;;;;;34.30;15.45;;;;;;;;;;6137037;23;20183;-40
2023/10/10 11:41:28;;;;;;;34.20;15.90;;;;;;;;;;6185809;23;20016;-40
2023/10/10 11:44:01;;;;;;;35.80;15.87;;;;;;;;;;6189075;23;20023;-40
2023/10/10 11:46:30;;;;;;;32.83;15.48;;;;;;;;;;6182074;23;20062;-41
2023/10/10 11:48:59;;;;;;;36.08;16.08;;;;;;;;;;6186760;23;20101;-41
2023/10/10 11:51:35;;;;;;;33.38;15.32;;;;;;;;;;6184399;23;20012;-40
2023/10/10 11:54:03;;;;;;;32.22;15.02;;;;;;;;;;6140569;23;20095;-40
2023/10/10 11:56:34;;;;;;;30.50;14.80;;;;;;;;;;6164779;23;20514;-41
2023/10/10 11:59:09;;;;;;;33.90;14.98;;;;;;;;;;6189837;23;20020;-40
2023/10/10 12:01:51;;;;;;;38.45;16.02;;;;;;;;;;6174453;23;20059;-43
2023/10/10 12:04:33;;;;;;;29.23;14.40;;;;;;;;;;6192739;23;20039;-40
2023/10/10 12:07:09;;;;;;;35.17;15.32;;;;;;;;;;6136344;23;20502;-41
2023/10/10 12:09:38;;;;;;;32.37;14.80;;;;;;;;;;6196573;23;20017;-40
2023/10/10 12:12:06;;;;;;;37.88;14.70;;;;;;;;;;6185494;23;20070;-40
2023/10/10 12:14:34;;;;;;;35.28;14.43;;;;;;;;;;6187845;23;20016;-40
2023/10/10 12:17:05;;;;;;;28.63;12.82;;;;;;;;;;6192921;23;20078;-41
2023/10/10 12:19:38;;;;;;;30.13;13.02;;;;;;;;;;6186810;23;20459;-40
2023/10/10 12:22:10;;;;;;;29.97;14.17;;;;;;;;;;6150296;23;20430;-40
2023/10/10 12:24:39;;;;;;;28.40;12.70;;;;;;;;;;6187325;23;20107;-40
2023/10/10 12:27:09;;;;;;;27.40;14.05;;;;;;;;;;6182095;23;20020;-40
2023/10/10 12:29:39;;;;;;;31.67;12.98;;;;;;;;;;6156419;23;20865;-41
2023/10/10 12:32:18;;;;;;;27.08;13.55;;;;;;;;;;6193432;23;20020;-40
2023/10/10 12:34:47;;;;;;;24.67;12.00;;;;;;;;;;6161273;23;20020;-40
2023/10/10 12:37:16;;;;;;;28.48;14.23;;;;;;;;;;6186218;23;20046;-40
2023/10/10 12:39:44;;;;;;;28.38;13.57;;;;;;;;;;6175847;23;20020;-39
2023/10/10 12:42:12;;;;;;;26.63;12.88;;;;;;;;;;6183042;23;20020;-40
2023/10/10 12:44:40;;;;;;;25.45;12.98;;;;;;;;;;6190798;23;20128;-40
2023/10/10 12:47:17;;;;;;;26.93;12.63;;;;;;;;;;6179165;23;20016;-39
2023/10/10 12:49:45;;;;;;;24.98;12.35;;;;;;;;;;6173321;23;20354;-40
2023/10/10 12:52:17;;;;;;;26.20;12.57;;;;;;;;;;6191811;23;20115;-40
2023/10/10 12:54:56;;;;;;;25.13;12.20;;;;;;;;;;6169491;23;20454;-41
2023/10/10 12:57:24;;;;;;;24.67;12.55;;;;;;;;;;6177902;23;20107;-40
2023/10/10 12:59:59;;;;;;;29.17;12.83;;;;;;;;;;6177943;23;20373;-39
2023/10/10 13:02:27;;;;;;;23.27;11.18;;;;;;;;;;6185965;23;20343;-39
2023/10/10 13:04:56;;;;;;;20.90;10.80;;;;;;;;;;6197407;23;20027;-40
2023/10/10 13:07:27;;;;;;;23.27;11.32;;;;;;;;;;6190975;23;20656;-40
2023/10/10 13:09:56;;;;;;;23.23;11.10;;;;;;;;;;6181528;23;20077;-40
2023/10/10 13:12:32;;;;;;;23.37;11.40;;;;;;;;;;6189593;23;20466;-40
2023/10/10 13:15:17;;;;;;;26.50;12.88;;;;;;;;;;6172262;23;20033;-42
2023/10/10 13:17:53;;;;;;;24.05;12.13;;;;;;;;;;6187508;23;20111;-40
2023/10/10 13:20:22;;;;;;;23.45;11.18;;;;;;;;;;6178117;23;20131;-40
2023/10/10 13:22:51;;;;;;;21.73;11.27;;;;;;;;;;6180446;23;20368;-40
2023/10/10 13:25:21;;;;;;;22.60;11.40;;;;;;;;;;6178557;23;20023;-40
2023/10/10 13:27:52;;;;;;;20.02;11.10;;;;;;;;;;6180384;23;20031;-40
2023/10/10 13:30:20;;;;;;;20.55;11.85;;;;;;;;;;6182128;23;20398;-42
2023/10/10 13:32:48;;;;;;;22.08;11.48;;;;;;;;;;6175975;23;20023;-40
2023/10/10 13:35:19;;;;;;;18.33;9.35;;;;;;;;;;6194275;23;20545;-40
2023/10/10 13:37:51;;;;;;;20.50;9.87;;;;;;;;;;6185779;23;20012;-41
2023/10/10 13:40:22;;;;;;;19.33;9.35;;;;;;;;;;6186670;23;20323;-40
2023/10/10 13:42:50;;;;;;;20.75;9.95;;;;;;;;;;6155945;23;20466;-40
2023/10/10 13:45:22;;;;;;;17.48;10.02;;;;;;;;;;6184544;23;20274;-40
2023/10/10 13:47:51;;;;;;;17.30;8.60;;;;;;;;;;6176251;23;20341;-40
2023/10/10 13:50:31;;;;;;;17.10;8.00;;;;;;;;;;6181470;23;20397;-40
2023/10/10 13:53:00;;;;;;;15.52;8.38;;;;;;;;;;6178509;23;20019;-41
2023/10/10 13:55:51;;;;;;;19.85;10.00;;;;;;;;;;6139666;23;20099;-41
2023/10/10 13:58:20;;;;;;;17.45;8.70;;;;;;;;;;6188853;23;20026;-40
2023/10/10 14:00:55;;;;;;;16.50;8.98;;;;;;;;;;6193731;23;20020;-41
2023/10/10 14:03:35;;;;;;;17.13;8.83;;;;;;;;;;6189444;23;20393;-41
2023/10/10 14:06:14;;;;;;;17.15;8.35;;;;;;;;;;6148786;23;20450;-40
2023/10/10 14:08:47;;;;;;;14.88;7.95;;;;;;;;;;6192196;23;20126;-41
2023/10/10 14:11:20;;;;;;;19.02;9.00;;;;;;;;;;6186588;23;20016;-41
2023/10/10 14:13:49;;;;;;;17.30;8.77;;;;;;;;;;6151478;23;20457;-40
2023/10/10 14:16:25;;;;;;;14.60;8.13;;;;;;;;;;6142754;23;20078;-41
2023/10/10 14:18:54;;;;;;;15.40;7.97;;;;;;;;;;6192731;23;20031;-41
2023/10/10 14:21:24;;;;;;;16.75;8.60;;;;;;;;;;6190781;23;20016;-40
2023/10/10 14:24:04;;;;;;;17.25;9.55;;;;;;;;;;6183116;23;20388;-41
2023/10/10 14:26:37;;;;;;;18.27;8.90;;;;;;;;;;6186864;23;20603;-41
2023/10/10 14:29:12;;;;;;;16.43;8.53;;;;;;;;;;6182458;23;20020;-41
2023/10/10 14:31:46;;;;;;;18.80;8.93;;;;;;;;;;6155920;23;20046;-41
2023/10/10 14:34:19;;;;;;;17.42;9.95;;;;;;;;;;6187681;23;20012;-42
2023/10/10 14:36:51;;;;;;;16.38;9.65;;;;;;;;;;6166434;23;20252;-40
2023/10/10 14:39:30;;;;;;;22.75;10.98;;;;;;;;;;6183508;23;20554;-41
2023/10/10 14:41:59;;;;;;;19.20;10.43;;;;;;;;;;6175735;23;20023;-41
2023/10/10 14:44:28;;;;;;;22.33;11.90;;;;;;;;;;6186057;23;20016;-41
2023/10/10 14:46:57;;;;;;;22.15;11.80;;;;;;;;;;6188152;23;20024;-41
2023/10/10 14:49:30;;;;;;;21.02;11.45;;;;;;;;;;6126563;23;20101;-42
2023/10/10 14:52:03;;;;;;;19.25;10.43;;;;;;;;;;6170810;23;20016;-41
2023/10/10 14:54:37;;;;;;;23.10;12.00;;;;;;;;;;6183025;23;20451;-41
2023/10/10 14:57:05;;;;;;;21.88;10.68;;;;;;;;;;6150317;23;20069;-41
2023/10/10 14:59:33;;;;;;;21.38;11.43;;;;;;;;;;6175080;23;20028;-41
2023/10/10 15:02:04;;;;;;;21.60;11.00;;;;;;;;;;6178625;23;20047;-42
2023/10/10 15:04:33;;;;;;;17.55;9.38;;;;;;;;;;6185588;23;20047;-43
2023/10/10 15:07:04;;;;;;;17.07;8.90;;;;;;;;;;6175240;23;20035;-41
2023/10/10 15:09:35;;;;;;;17.90;9.35;;;;;;;;;;6176666;23;20020;-42
2023/10/10 15:12:07;;;;;;;20.20;9.73;;;;;;;;;;6146155;23;20030;-42
2023/10/10 15:14:34;;;;;;;24.17;10.65;;;;;;;;;;6183336;23;20213;-41
2023/10/10 15:17:04;;;;;;;20.48;10.98;;;;;;;;;;6181267;23;20016;-43
2023/10/10 15:19:33;;;;;;;23.10;11.53;;;;;;;;;;6193906;23;20016;-41
2023/10/10 15:22:01;;;;;;;25.00;13.55;;;;;;;;;;6172286;23;20016;-42
2023/10/10 15:24:31;;;;;;;23.75;12.95;;;;;;;;;;6188800;23;20482;-41
2023/10/10 15:27:00;;;;;;;24.88;12.50;;;;;;;;;;6183287;23;20051;-40
2023/10/10 15:29:32;;;;;;;20.58;11.65;;;;;;;;;;6169331;23;20332;-41
2023/10/10 15:32:03;;;;;;;23.83;11.57;;;;;;;;;;6193459;23;20328;-41
2023/10/10 15:34:31;;;;;;;21.95;11.55;;;;;;;;;;6183456;23;20332;-41
2023/10/10 15:37:00;;;;;;;19.92;10.40;;;;;;;;;;6195429;23;20627;-41
2023/10/10 15:39:28;;;;;;;19.83;10.65;;;;;;;;;;6183478;23;20051;-41
2023/10/10 15:41:59;;;;;;;22.35;11.18;;;;;;;;;;6183713;23;20355;-41
2023/10/10 15:44:28;;;;;;;17.63;10.00;;;;;;;;;;6183175;23;20462;-42
2023/10/10 15:46:58;;;;;;;19.10;10.45;;;;;;;;;;6194085;23;20021;-41
2023/10/10 15:49:26;;;;;;;19.17;9.85;;;;;;;;;;6185668;23;20016;-41
2023/10/10 15:52:04;;;;;;;18.98;10.40;;;;;;;;;;6191524;23;20044;-42
2023/10/10 15:54:33;;;;;;;20.20;11.15;;;;;;;;;;6183382;23;20400;-41
2023/10/10 15:57:05;;;;;;;19.30;10.20;;;;;;;;;;6193272;23;20476;-41
2023/10/10 15:59:41;;;;;;;19.83;9.98;;;;;;;;;;6148974;23;20390;-41
2023/10/10 16:02:13;;;;;;;19.30;11.05;;;;;;;;;;6180287;23;20021;-41
2023/10/10 16:04:44;;;;;;;17.92;9.73;;;;;;;;;;6186916;23;20016;-41
2023/10/10 16:07:15;;;;;;;19.55;10.25;;;;;;;;;;6181408;23;20016;-41
2023/10/10 16:09:44;;;;;;;17.00;9.53;;;;;;;;;;6171587;23;20546;-40
2023/10/10 16:12:12;;;;;;;16.52;9.85;;;;;;;;;;6194043;23;20023;-41
2023/10/10 16:14:42;;;;;;;21.35;9.98;;;;;;;;;;6184284;23;20031;-41
2023/10/10 16:17:15;;;;;;;19.38;10.30;;;;;;;;;;6187896;23;20066;-40
2023/10/10 16:19:43;;;;;;;16.98;9.82;;;;;;;;;;6184396;23;20016;-41
2023/10/10 16:22:13;;;;;;;19.27;10.13;;;;;;;;;;6194238;23;20019;-41
2023/10/10 16:24:40;;;;;;;20.60;10.48;;;;;;;;;;6188878;23;20107;-41
2023/10/10 16:27:08;;;;;;;17.27;9.93;;;;;;;;;;6190814;23;20474;-42
2023/10/10 16:29:36;;;;;;;15.52;9.77;;;;;;;;;;6158110;23;20784;-44
2023/10/10 16:32:08;;;;;;;21.55;11.57;;;;;;;;;;6201315;23;20062;-41
2023/10/10 16:34:37;;;;;;;20.50;11.93;;;;;;;;;;6204803;23;20023;-42
2023/10/10 16:37:13;;;;;;;20.17;10.55;;;;;;;;;;6219186;23;20016;-40
2023/10/10 16:39:45;;;;;;;19.02;11.65;;;;;;;;;;6209951;23;20012;-42
2023/10/10 16:42:15;;;;;;;18.23;10.85;;;;;;;;;;6206725;23;20024;-41
2023/10/10 16:44:44;;;;;;;21.85;12.23;;;;;;;;;;6207365;23;20379;-41
2023/10/10 16:47:16;;;;;;;22.37;12.17;;;;;;;;;;6216238;23;20024;-41
2023/10/10 16:50:06;;;;;;;21.67;12.52;;;;;;;;;;6203321;23;20199;-41
2023/10/10 16:52:36;;;;;;;21.52;12.40;;;;;;;;;;6182428;23;20016;-44
2023/10/10 16:55:10;;;;;;;21.00;12.98;;;;;;;;;;6203499;23;20336;-41
2023/10/10 16:57:38;;;;;;;24.02;13.70;;;;;;;;;;6214186;23;20012;-42
2023/10/10 17:00:13;;;;;;;19.63;12.40;;;;;;;;;;6204843;23;20023;-41
2023/10/10 17:02:45;;;;;;;20.35;12.80;;;;;;;;;;6211558;23;20016;-42
2023/10/10 17:05:13;;;;;;;21.52;13.05;;;;;;;;;;6201846;23;20521;-42
2023/10/10 17:07:41;;;;;;;19.90;12.52;;;;;;;;;;6217429;23;20020;-41
2023/10/10 17:10:13;;;;;;;23.83;13.40;;;;;;;;;;6202293;23;20475;-41
2023/10/10 17:12:42;;;;;;;23.67;13.00;;;;;;;;;;6213266;23;20024;-42
2023/10/10 17:15:13;;;;;;;23.70;12.43;;;;;;;;;;6205756;23;20036;-40
2023/10/10 17:17:44;;;;;;;22.30;13.48;;;;;;;;;;6210335;23;20087;-40
2023/10/10 17:20:15;;;;;;;24.58;13.10;;;;;;;;;;6208991;23;20027;-41
2023/10/10 17:22:44;;;;;;;22.80;12.70;;;;;;;;;;6210873;23;20481;-42
2023/10/10 17:25:12;;;;;;;21.47;12.60;;;;;;;;;;6208896;23;20026;-40
2023/10/10 17:27:43;;;;;;;20.42;10.48;;;;;;;;;;6210127;23;20031;-40
2023/10/10 17:30:14;;;;;;;21.48;12.05;;;;;;;;;;6208770;23;20517;-41
2023/10/10 17:32:44;;;;;;;24.92;12.25;;;;;;;;;;6198866;23;20072;-42
2023/10/10 17:35:13;;;;;;;20.02;11.93;;;;;;;;;;6212666;23;20070;-40